Time;durP1;ratioP1;P1;durP2;ratioP2;P2;SDS_P1;SDS_P2;PMS_P1;PMS_P2;Temp;Humidity;BMP_temperature;BMP_pressure;BME280_temperature;BME280_humidity;BME280_pressure;Samples;Min_cycle;Max_cycle;Signal;HPM_P1;HPM_P2
2022/03/12 00:01:24;;;;;;;0.57;0.57;;;7.50;56.70;;;;;;6316563;22;20584;-72
2022/03/12 00:03:50;;;;;;;0.10;0.10;;;7.60;57.50;;;;;;6306009;22;20517;-71
2022/03/12 00:06:17;;;;;;;0.15;0.15;;;7.60;57.20;;;;;;6306450;22;20074;-71
2022/03/12 00:08:44;;;;;;;2.60;2.28;;;7.60;56.10;;;;;;6316340;22;20010;-72
2022/03/12 00:11:15;;;;;;;1.20;1.17;;;7.70;56.00;;;;;;6305981;22;20010;-72
2022/03/12 00:13:42;;;;;;;0.20;0.20;;;7.70;57.70;;;;;;6306074;22;20018;-71
2022/03/12 00:16:15;;;;;;;0.47;0.47;;;7.60;60.40;;;;;;6306435;22;20003;-71
2022/03/12 00:18:47;;;;;;;1.02;1.02;;;7.20;61.60;;;;;;6304905;22;20021;-72
2022/03/12 00:21:13;;;;;;;0.25;0.25;;;7.20;62.10;;;;;;6305994;22;20011;-71
2022/03/12 00:23:49;;;;;;;0.73;0.73;;;7.10;63.90;;;;;;6306230;22;20026;-71
2022/03/12 00:26:16;;;;;;;0.30;0.30;;;6.90;63.20;;;;;;6306327;22;20030;-71
2022/03/12 00:28:43;;;;;;;0.20;0.20;;;6.90;62.10;;;;;;6304425;22;20010;-72
2022/03/12 00:31:10;;;;;;;0.63;0.63;;;6.90;63.00;;;;;;6316313;22;20007;-72
2022/03/12 00:33:35;;;;;;;4.78;2.75;;;7.00;62.30;;;;;;6305980;22;20014;-72
2022/03/12 00:36:02;;;;;;;0.17;0.17;;;6.80;63.00;;;;;;6316012;22;20011;-71
2022/03/12 00:38:29;;;;;;;0.00;0.00;;;6.90;60.50;;;;;;6316127;22;20011;-71
2022/03/12 00:40:55;;;;;;;1.70;1.55;;;6.90;59.70;;;;;;6305839;22;20015;-72
2022/03/12 00:43:22;;;;;;;0.88;0.88;;;7.00;59.80;;;;;;6314357;22;20017;-71
2022/03/12 00:45:49;;;;;;;7.22;2.50;;;7.00;59.40;;;;;;6304272;22;20007;-71
2022/03/12 00:48:16;;;;;;;2.97;2.78;;;7.00;60.00;;;;;;6305938;22;20003;-72
2022/03/12 00:50:42;;;;;;;0.10;0.10;;;7.10;60.40;;;;;;6316322;22;20018;-71
2022/03/12 00:53:08;;;;;;;2.38;1.55;;;7.10;60.60;;;;;;6344957;22;20015;-72
2022/03/12 00:55:34;;;;;;;0.13;0.13;;;7.10;60.80;;;;;;6337215;22;20446;-72
2022/03/12 00:58:00;;;;;;;0.65;0.65;;;7.00;60.40;;;;;;6336917;22;20033;-72
2022/03/12 01:00:26;;;;;;;0.98;0.52;;;7.10;61.20;;;;;;6347224;22;20448;-71
2022/03/12 01:02:53;;;;;;;0.10;0.10;;;6.90;63.30;;;;;;6347155;22;20003;-73
2022/03/12 01:05:50;;;;;;;2.22;1.55;;;6.90;65.10;;;;;;6347194;22;20370;-72
2022/03/12 01:08:23;;;;;;;0.40;0.40;;;6.80;62.30;;;;;;6308794;22;20064;-72
2022/03/12 01:10:49;;;;;;;1.75;0.40;;;6.50;66.70;;;;;;6347245;22;20026;-72
2022/03/12 01:13:15;;;;;;;1.80;0.88;;;6.60;65.40;;;;;;6336979;22;20006;-72
2022/03/12 01:15:42;;;;;;;0.65;0.35;;;6.40;66.50;;;;;;6337181;22;20067;-72
2022/03/12 01:18:15;;;;;;;0.35;0.20;;;6.20;67.40;;;;;;6336297;22;20335;-72
2022/03/12 01:20:44;;;;;;;0.10;0.10;;;6.20;66.80;;;;;;6336657;22;20385;-72
2022/03/12 01:23:13;;;;;;;0.10;0.10;;;6.20;67.00;;;;;;6346989;22;20002;-72
2022/03/12 01:25:41;;;;;;;0.57;0.57;;;6.20;67.40;;;;;;6336994;22;20011;-71
2022/03/12 01:28:09;;;;;;;7.10;1.58;;;6.30;64.60;;;;;;6346754;22;20011;-72
2022/03/12 01:30:35;;;;;;;0.10;0.10;;;6.40;63.60;;;;;;6336768;22;20014;-72
2022/03/12 01:33:02;;;;;;;0.30;0.30;;;6.40;64.30;;;;;;6346820;22;20276;-71
2022/03/12 01:35:27;;;;;;;0.32;0.32;;;6.40;64.10;;;;;;6336844;22;20159;-71
2022/03/12 01:37:54;;;;;;;0.63;0.63;;;6.50;63.90;;;;;;6346583;22;20431;-71
2022/03/12 01:40:20;;;;;;;0.52;0.52;;;6.60;61.90;;;;;;6336792;22;20015;-71
2022/03/12 01:42:47;;;;;;;0.10;0.10;;;6.60;63.00;;;;;;6347030;22;20335;-72
2022/03/12 01:45:23;;;;;;;0.45;0.45;;;6.70;63.90;;;;;;6346887;22;20034;-72
2022/03/12 01:47:49;;;;;;;0.35;0.35;;;6.70;63.00;;;;;;6308796;22;20082;-73
2022/03/12 01:50:21;;;;;;;0.40;0.40;;;6.80;64.40;;;;;;6336528;22;20033;-72
2022/03/12 01:52:48;;;;;;;0.10;0.10;;;6.80;65.60;;;;;;6336263;22;20340;-71
2022/03/12 01:55:14;;;;;;;2.42;2.13;;;6.80;66.10;;;;;;6346860;22;20037;-72
2022/03/12 01:57:40;;;;;;;6.80;1.92;;;6.70;66.90;;;;;;6336936;22;20564;-71
2022/03/12 02:00:20;;;;;;;0.70;0.70;;;6.70;63.10;;;;;;6336408;22;20011;-72
2022/03/12 02:02:53;;;;;;;1.00;1.00;;;6.80;66.30;;;;;;6312592;22;20011;-72
2022/03/12 02:05:27;;;;;;;0.75;0.75;;;6.70;64.80;;;;;;6308774;22;20506;-72
2022/03/12 02:07:58;;;;;;;0.80;0.80;;;6.60;64.10;;;;;;6346818;22;20370;-73
2022/03/12 02:10:26;;;;;;;0.37;0.37;;;6.70;63.40;;;;;;6319599;22;20435;-73
2022/03/12 02:12:52;;;;;;;0.35;0.35;;;6.80;61.90;;;;;;6346687;22;20336;-72
2022/03/12 02:15:19;;;;;;;0.63;0.60;;;7.00;62.30;;;;;;6346883;22;20354;-72
2022/03/12 02:17:45;;;;;;;0.20;0.20;;;7.30;62.30;;;;;;6336821;22;20060;-72
2022/03/12 02:20:13;;;;;;;1.30;0.63;;;7.20;62.20;;;;;;6310463;22;20018;-73
2022/03/12 02:22:39;;;;;;;0.73;0.73;;;7.30;61.60;;;;;;6338333;22;20324;-72
2022/03/12 02:25:05;;;;;;;3.25;2.67;;;7.30;61.90;;;;;;6348710;22;20022;-72
2022/03/12 02:27:32;;;;;;;1.08;1.08;;;7.30;61.90;;;;;;6348641;22;20077;-72
2022/03/12 02:29:59;;;;;;;0.55;0.55;;;7.30;60.90;;;;;;6348850;22;20007;-73
2022/03/12 02:32:28;;;;;;;0.57;0.57;;;7.20;61.00;;;;;;6348659;22;20011;-72
2022/03/12 02:34:59;;;;;;;0.22;0.22;;;7.20;61.40;;;;;;6348541;22;20014;-72
2022/03/12 02:37:29;;;;;;;0.10;0.10;;;7.20;63.10;;;;;;6297047;22;20010;-71
2022/03/12 02:39:58;;;;;;;1.42;1.33;;;7.10;64.60;;;;;;6348225;22;20006;-71
2022/03/12 02:42:24;;;;;;;0.20;0.20;;;7.00;62.10;;;;;;6348582;22;20010;-71
2022/03/12 02:44:50;;;;;;;26.00;2.03;;;7.00;62.10;;;;;;6338124;22;19999;-71
2022/03/12 02:47:23;;;;;;;0.10;0.10;;;7.00;63.50;;;;;;6337966;22;20003;-71
2022/03/12 02:49:56;;;;;;;0.45;0.45;;;6.70;69.70;;;;;;6338047;22;20006;-71
2022/03/12 02:52:27;;;;;;;3.90;1.80;;;6.80;68.20;;;;;;6348320;22;20018;-71
2022/03/12 02:54:57;;;;;;;1.55;0.65;;;6.50;71.10;;;;;;6348260;22;20454;-71
2022/03/12 02:57:25;;;;;;;2.85;0.80;;;6.30;72.20;;;;;;6348514;22;20003;-72
2022/03/12 02:59:53;;;;;;;0.60;0.60;;;6.00;73.10;;;;;;6311026;22;20309;-73
2022/03/12 03:02:30;;;;;;;0.45;0.45;;;5.90;73.60;;;;;;6348400;22;20011;-72
2022/03/12 03:04:56;;;;;;;0.32;0.32;;;5.70;74.30;;;;;;6322186;22;20002;-71
2022/03/12 03:07:22;;;;;;;0.55;0.38;;;5.80;73.30;;;;;;6338116;22;20060;-71
2022/03/12 03:09:48;;;;;;;0.28;0.28;;;5.90;69.50;;;;;;6348350;22;20033;-71
2022/03/12 03:12:14;;;;;;;0.32;0.32;;;5.90;69.60;;;;;;6348072;22;20018;-71
2022/03/12 03:14:47;;;;;;;0.30;0.30;;;6.00;68.40;;;;;;6348141;22;20086;-71
2022/03/12 03:17:13;;;;;;;0.10;0.10;;;6.10;66.30;;;;;;6320567;22;20006;-72
2022/03/12 03:19:40;;;;;;;0.70;0.70;;;6.20;66.80;;;;;;6338019;22;20014;-72
2022/03/12 03:22:07;;;;;;;0.47;0.43;;;6.20;69.10;;;;;;6310511;22;20003;-72
2022/03/12 03:24:34;;;;;;;0.50;0.50;;;6.20;71.50;;;;;;6347951;22;20014;-71
2022/03/12 03:27:00;;;;;;;0.43;0.43;;;6.00;73.20;;;;;;6309855;22;20006;-71
2022/03/12 03:29:30;;;;;;;0.32;0.32;;;5.90;73.30;;;;;;6337904;22;20011;-72
2022/03/12 03:32:01;;;;;;;1.85;1.75;;;5.90;74.50;;;;;;6337310;22;20021;-71
2022/03/12 03:34:29;;;;;;;4.00;1.93;;;5.90;74.20;;;;;;6309815;22;20003;-71
2022/03/12 03:36:55;;;;;;;0.30;0.30;;;5.70;74.20;;;;;;6347831;22;20038;-72
2022/03/12 03:39:21;;;;;;;0.25;0.25;;;5.40;74.50;;;;;;6347908;22;20145;-73
2022/03/12 03:41:47;;;;;;;1.10;1.05;;;5.30;75.60;;;;;;6337763;22;20015;-71
2022/03/12 03:44:14;;;;;;;0.77;0.77;;;5.40;73.90;;;;;;6347927;22;20590;-72
2022/03/12 03:46:39;;;;;;;0.50;0.50;;;5.40;75.30;;;;;;6337652;22;20085;-71
2022/03/12 03:49:06;;;;;;;2.30;2.10;;;5.20;75.20;;;;;;6347731;22;20027;-71
2022/03/12 03:51:40;;;;;;;1.80;1.70;;;5.40;70.80;;;;;;6347648;22;20452;-71
2022/03/12 03:54:08;;;;;;;0.10;0.10;;;5.40;74.10;;;;;;6296020;22;20010;-71
2022/03/12 03:56:35;;;;;;;0.10;0.10;;;5.40;73.30;;;;;;6337676;22;20423;-72
2022/03/12 03:59:01;;;;;;;1.50;1.40;;;5.50;71.90;;;;;;6347735;22;20074;-70
2022/03/12 04:01:27;;;;;;;0.10;0.10;;;5.60;71.10;;;;;;6347558;22;20030;-72
2022/03/12 04:03:52;;;;;;;0.30;0.30;;;5.50;74.40;;;;;;6347566;22;20010;-71
2022/03/12 04:06:22;;;;;;;0.52;0.52;;;5.60;74.70;;;;;;6347732;22;20014;-71
2022/03/12 04:08:49;;;;;;;2.40;1.85;;;5.70;70.80;;;;;;6347640;22;20011;-71
2022/03/12 04:11:19;;;;;;;0.10;0.10;;;5.60;73.20;;;;;;6337383;22;20006;-71
2022/03/12 04:13:46;;;;;;;0.40;0.40;;;5.60;73.40;;;;;;6310497;22;20432;-72
2022/03/12 04:16:13;;;;;;;0.50;0.50;;;5.70;70.30;;;;;;6347434;22;20003;-71
2022/03/12 04:18:42;;;;;;;0.10;0.10;;;5.70;70.10;;;;;;6347744;22;20032;-71
2022/03/12 04:21:09;;;;;;;2.08;1.70;;;5.70;71.00;;;;;;6347159;22;20033;-71
2022/03/12 04:23:36;;;;;;;2.50;1.80;;;5.80;71.80;;;;;;6337544;22;20013;-71
2022/03/12 04:26:02;;;;;;;1.50;1.40;;;5.70;71.60;;;;;;6347411;22;20014;-71
2022/03/12 04:28:32;;;;;;;0.10;0.10;;;5.60;72.50;;;;;;6337291;22;20076;-71
2022/03/12 04:31:03;;;;;;;0.40;0.40;;;5.10;76.30;;;;;;6347751;22;20007;-71
2022/03/12 04:33:30;;;;;;;0.85;0.85;;;5.10;76.40;;;;;;6337424;22;20018;-71
2022/03/12 04:35:57;;;;;;;0.25;0.25;;;4.90;77.30;;;;;;6347177;22;20038;-71
2022/03/12 04:38:23;;;;;;;3.20;1.27;;;4.90;77.50;;;;;;6319825;22;20015;-71
2022/03/12 04:40:49;;;;;;;2.72;2.30;;;4.50;77.70;;;;;;6347137;22;20010;-71
2022/03/12 04:43:15;;;;;;;0.70;0.70;;;4.40;78.60;;;;;;6347207;22;20338;-71
2022/03/12 04:45:46;;;;;;;0.70;0.70;;;4.40;77.50;;;;;;6337121;22;20014;-70
2022/03/12 04:48:18;;;;;;;3.10;2.80;;;4.50;75.60;;;;;;6337119;22;20011;-71
2022/03/12 04:50:45;;;;;;;1.15;1.13;;;4.60;75.40;;;;;;6336886;22;20336;-72
2022/03/12 04:53:11;;;;;;;0.10;0.10;;;4.70;73.10;;;;;;6308807;22;20331;-71
2022/03/12 04:55:37;;;;;;;0.20;0.20;;;4.80;75.30;;;;;;6347329;22;20041;-71
2022/03/12 04:58:04;;;;;;;0.82;0.82;;;4.80;75.90;;;;;;6346959;22;20007;-71
2022/03/12 05:00:35;;;;;;;1.35;1.15;;;4.80;75.10;;;;;;6337212;22;20572;-71
2022/03/12 05:03:00;;;;;;;0.30;0.30;;;4.80;75.20;;;;;;6336971;22;20003;-71
2022/03/12 05:05:26;;;;;;;2.97;1.55;;;4.90;73.00;;;;;;6347320;22;20021;-71
2022/03/12 05:07:52;;;;;;;0.10;0.10;;;5.00;72.30;;;;;;6337028;22;20003;-71
2022/03/12 05:10:18;;;;;;;0.40;0.40;;;5.00;71.60;;;;;;6309430;22;20477;-71
2022/03/12 05:12:50;;;;;;;0.10;0.10;;;5.10;71.50;;;;;;6347149;22;20007;-71
2022/03/12 05:15:17;;;;;;;;;;;5.10;72.10;;;;;;6347473;22;20074;-72
2022/03/12 05:17:46;;;;;;;0.20;0.20;;;5.20;71.00;;;;;;6337094;22;19957;-71
2022/03/12 05:20:18;;;;;;;0.40;0.40;;;5.20;71.20;;;;;;6346954;22;20006;-72
2022/03/12 05:22:44;;;;;;;4.63;3.00;;;5.20;71.30;;;;;;6346991;22;20014;-72
2022/03/12 05:25:11;;;;;;;0.10;0.10;;;5.10;71.40;;;;;;6347145;22;20374;-72
2022/03/12 05:27:53;;;;;;;0.38;0.38;;;5.10;71.90;;;;;;6347037;22;20006;-74
2022/03/12 05:30:21;;;;;;;0.63;0.63;;;5.10;71.70;;;;;;6337226;22;20014;-73
2022/03/12 05:32:48;;;;;;;0.10;0.10;;;5.10;71.90;;;;;;6336712;22;20039;-71
2022/03/12 05:35:18;;;;;;;0.40;0.40;;;5.10;72.00;;;;;;6309563;22;20427;-72
2022/03/12 05:37:45;;;;;;;3.20;1.20;;;5.10;72.10;;;;;;6336896;22;20056;-71
2022/03/12 05:40:14;;;;;;;0.60;0.60;;;5.10;72.30;;;;;;6319035;22;20017;-72
2022/03/12 05:42:42;;;;;;;2.17;1.95;;;5.10;72.60;;;;;;6336837;22;20007;-72
2022/03/12 05:45:09;;;;;;;0.70;0.70;;;4.80;77.20;;;;;;6319269;22;20020;-72
2022/03/12 05:47:41;;;;;;;0.25;0.25;;;4.40;77.80;;;;;;6336669;22;20056;-72
2022/03/12 05:50:12;;;;;;;0.47;0.47;;;4.40;78.40;;;;;;6319160;22;20097;-73
2022/03/12 05:52:41;;;;;;;0.65;0.65;;;4.40;77.30;;;;;;6335705;22;20014;-72
2022/03/12 05:55:08;;;;;;;0.10;0.10;;;4.60;75.70;;;;;;6348133;22;20010;-72
2022/03/12 05:57:36;;;;;;;1.27;1.17;;;4.50;76.20;;;;;;6348931;22;20010;-72
2022/03/12 06:00:11;;;;;;;1.67;0.52;;;4.20;79.30;;;;;;6338485;22;20059;-73
2022/03/12 06:02:52;;;;;;;0.38;0.38;;;4.30;77.10;;;;;;6310499;22;20401;-72
2022/03/12 06:05:23;;;;;;;0.10;0.10;;;4.30;78.40;;;;;;6349049;22;20545;-72
2022/03/12 06:07:53;;;;;;;;;;;4.20;79.30;;;;;;6322416;22;20011;-72
2022/03/12 06:10:23;;;;;;;0.75;0.75;;;4.20;79.50;;;;;;6348685;22;19952;-78
2022/03/12 06:12:53;;;;;;;0.00;0.00;;;4.30;79.00;;;;;;6348911;22;20002;-69
2022/03/12 06:15:22;;;;;;;0.93;0.90;;;4.20;79.90;;;;;;6338436;22;20014;-71
2022/03/12 06:17:49;;;;;;;1.75;1.65;;;4.10;80.30;;;;;;6348827;22;20048;-68
2022/03/12 06:20:23;;;;;;;1.23;1.15;;;4.20;78.30;;;;;;6337598;22;20041;-68
2022/03/12 06:22:52;;;;;;;0.10;0.10;;;4.20;77.70;;;;;;6338644;22;20082;-70
2022/03/12 06:25:19;;;;;;;1.42;0.95;;;4.30;77.70;;;;;;6338081;22;20010;-67
2022/03/12 06:27:53;;;;;;;1.00;1.00;;;4.30;77.40;;;;;;6348613;22;20011;-67
2022/03/12 06:30:24;;;;;;;6.18;2.22;;;4.40;77.30;;;;;;6338229;22;20007;-67
2022/03/12 06:32:52;;;;;;;0.52;0.52;;;4.50;77.00;;;;;;6338425;22;19999;-68
2022/03/12 06:35:18;;;;;;;0.10;0.10;;;4.60;77.00;;;;;;6338114;22;20034;-69
2022/03/12 06:37:46;;;;;;;2.35;1.55;;;4.70;77.30;;;;;;6348073;22;20025;-69
2022/03/12 06:40:15;;;;;;;0.10;0.10;;;4.80;78.30;;;;;;6337979;22;20014;-68
2022/03/12 06:42:43;;;;;;;1.30;1.05;;;4.80;77.80;;;;;;6337634;22;20003;-68
2022/03/12 06:45:10;;;;;;;0.60;0.60;;;4.90;76.80;;;;;;6348148;22;20011;-69
2022/03/12 06:47:38;;;;;;;9.75;0.65;;;4.90;74.70;;;;;;6337751;22;20336;-69
2022/03/12 06:50:11;;;;;;;0.52;0.52;;;5.10;73.20;;;;;;6348483;22;20011;-69
2022/03/12 06:52:40;;;;;;;0.45;0.45;;;5.30;73.20;;;;;;6337838;22;20089;-69
2022/03/12 06:55:09;;;;;;;1.63;1.52;;;5.40;72.20;;;;;;6338145;22;20014;-72
2022/03/12 06:57:36;;;;;;;2.28;1.52;;;5.50;71.90;;;;;;6348325;22;20082;-72
2022/03/12 07:00:05;;;;;;;6.00;3.33;;;5.60;71.90;;;;;;6337401;22;20085;-72
2022/03/12 07:02:31;;;;;;;0.93;0.85;;;5.80;71.60;;;;;;6348252;22;20014;-72
2022/03/12 07:04:57;;;;;;;0.63;0.63;;;5.80;72.60;;;;;;6337413;22;20420;-72
2022/03/12 07:07:22;;;;;;;1.88;1.77;;;5.90;72.00;;;;;;6347974;22;20003;-72
2022/03/12 07:09:48;;;;;;;6.88;4.30;;;5.80;71.80;;;;;;6348154;22;20002;-71
2022/03/12 07:12:14;;;;;;;0.77;0.73;;;5.80;73.00;;;;;;6337883;22;20411;-72
2022/03/12 07:14:41;;;;;;;2.28;2.13;;;5.80;73.70;;;;;;6337969;22;20003;-72
2022/03/12 07:17:07;;;;;;;0.30;0.30;;;5.90;73.60;;;;;;6337897;22;20002;-73
2022/03/12 07:19:32;;;;;;;0.65;0.65;;;6.00;72.30;;;;;;6337308;22;20060;-70
2022/03/12 07:21:59;;;;;;;0.60;0.60;;;6.20;71.50;;;;;;6337955;22;20089;-69
2022/03/12 07:24:25;;;;;;;1.85;1.75;;;6.20;71.00;;;;;;6346932;22;20007;-74
2022/03/12 07:26:51;;;;;;;0.10;0.10;;;6.10;72.40;;;;;;6311172;22;20022;-74
2022/03/12 07:29:17;;;;;;;0.50;0.50;;;6.10;72.10;;;;;;6337732;22;20007;-76
2022/03/12 07:31:42;;;;;;;0.10;0.10;;;6.20;72.10;;;;;;6337677;22;20002;-75
2022/03/12 07:34:08;;;;;;;9.40;0.98;;;6.20;72.20;;;;;;6347514;22;20010;-75
2022/03/12 07:36:34;;;;;;;1.00;1.00;;;6.30;71.90;;;;;;6337772;22;20009;-75
2022/03/12 07:39:03;;;;;;;0.25;0.25;;;6.40;69.80;;;;;;6337964;22;20011;-75
2022/03/12 07:41:30;;;;;;;1.23;1.20;;;6.40;70.50;;;;;;6318552;22;20014;-73
2022/03/12 07:43:56;;;;;;;1.42;1.33;;;6.50;69.90;;;;;;6337645;22;20098;-72
2022/03/12 07:46:22;;;;;;;0.47;0.47;;;6.70;69.50;;;;;;6337504;22;20046;-72
2022/03/12 07:48:48;;;;;;;0.28;0.28;;;6.90;68.90;;;;;;6337599;22;20017;-72
2022/03/12 07:51:14;;;;;;;0.63;0.63;;;6.90;68.80;;;;;;6337460;22;20007;-68
2022/03/12 07:53:42;;;;;;;0.47;0.47;;;7.10;68.90;;;;;;6347749;22;20331;-67
2022/03/12 07:56:08;;;;;;;1.27;1.05;;;7.30;68.20;;;;;;6337087;22;20007;-78
2022/03/12 07:58:36;;;;;;;0.20;0.20;;;7.40;68.20;;;;;;6337569;22;20003;-64
2022/03/12 08:01:03;;;;;;;0.10;0.10;;;7.50;67.60;;;;;;6347784;22;20034;-66
2022/03/12 08:03:29;;;;;;;1.65;1.17;;;7.50;67.30;;;;;;6337540;22;20089;-67
2022/03/12 08:05:56;;;;;;;1.90;0.85;;;7.70;66.70;;;;;;6347736;22;20037;-68
2022/03/12 08:08:22;;;;;;;0.15;0.15;;;7.70;66.90;;;;;;6319915;22;20033;-76
2022/03/12 08:13:32;;;;;;;0.10;0.10;;;7.80;68.80;;;;;;6348012;22;20011;-70
2022/03/12 08:15:59;;;;;;;1.17;1.17;;;8.10;69.00;;;;;;6319963;22;20006;-67
2022/03/12 08:18:25;;;;;;;0.13;0.13;;;8.00;67.90;;;;;;6337172;22;20441;-67
2022/03/12 08:20:52;;;;;;;10.63;3.35;;;8.10;67.60;;;;;;6337627;22;20007;-63
2022/03/12 08:23:17;;;;;;;0.28;0.28;;;8.30;66.70;;;;;;6337259;22;20089;-71
2022/03/12 08:25:43;;;;;;;1.55;0.85;;;8.40;65.70;;;;;;6347283;22;20034;-70
2022/03/12 08:28:09;;;;;;;11.20;2.60;;;8.60;65.40;;;;;;6337424;22;20007;-70
2022/03/12 08:30:39;;;;;;;4.57;2.83;;;8.50;64.60;;;;;;6336393;22;19999;-68
2022/03/12 08:33:05;;;;;;;1.90;1.77;;;8.50;64.90;;;;;;6347146;22;20074;-67
2022/03/12 08:35:31;;;;;;;1.08;1.05;;;8.70;64.40;;;;;;6347268;22;20453;-67
2022/03/12 08:37:57;;;;;;;0.20;0.20;;;8.80;65.00;;;;;;6309269;22;20366;-66
2022/03/12 08:40:25;;;;;;;1.20;1.10;;;9.00;65.80;;;;;;6336707;22;20072;-67
2022/03/12 08:42:53;;;;;;;0.28;0.28;;;9.00;64.30;;;;;;6337238;22;20010;-67
2022/03/12 08:45:19;;;;;;;1.25;1.15;;;8.80;63.90;;;;;;6347019;22;20083;-68
2022/03/12 08:47:48;;;;;;;0.20;0.20;;;9.10;64.10;;;;;;6337565;22;20366;-68
2022/03/12 08:50:15;;;;;;;7.07;1.50;;;8.80;63.40;;;;;;6283317;22;20045;-69
2022/03/12 08:52:42;;;;;;;1.58;1.17;;;9.10;63.80;;;;;;6336829;22;20518;-68
2022/03/12 08:55:17;;;;;;;4.90;2.40;;;9.10;63.60;;;;;;6336826;22;20014;-70
2022/03/12 08:57:44;;;;;;;0.60;0.60;;;9.10;64.20;;;;;;6337506;22;20068;-68
2022/03/12 09:00:12;;;;;;;3.63;3.13;;;9.30;63.50;;;;;;6336973;22;20086;-68
2022/03/12 09:02:40;;;;;;;0.40;0.40;;;9.50;62.90;;;;;;6347514;22;20091;-69
2022/03/12 09:05:09;;;;;;;1.60;1.52;;;9.40;63.60;;;;;;6347234;22;20010;-67
2022/03/12 09:07:35;;;;;;;0.50;0.50;;;9.40;63.50;;;;;;6337105;22;20134;-67
2022/03/12 09:10:05;;;;;;;0.47;0.47;;;9.30;63.50;;;;;;6336450;22;20504;-67
2022/03/12 09:12:31;;;;;;;0.38;0.38;;;9.40;64.50;;;;;;6347229;22;20025;-67
2022/03/12 09:14:57;;;;;;;0.28;0.28;;;9.70;63.30;;;;;;6337260;22;20034;-68
2022/03/12 09:17:23;;;;;;;1.75;1.10;;;9.90;62.70;;;;;;6309110;22;20082;-67
2022/03/12 09:19:49;;;;;;;0.93;0.93;;;10.10;62.20;;;;;;6337042;22;20038;-67
2022/03/12 09:22:15;;;;;;;0.45;0.40;;;10.20;62.20;;;;;;6337257;22;20006;-68
2022/03/12 09:24:41;;;;;;;2.10;1.55;;;10.30;62.20;;;;;;6283443;22;20013;-68
2022/03/12 09:27:08;;;;;;;3.45;3.10;;;10.40;62.40;;;;;;6347256;22;20003;-68
2022/03/12 09:29:35;;;;;;;5.25;4.75;;;10.40;62.30;;;;;;6346838;22;20042;-67
2022/03/12 09:32:04;;;;;;;0.10;0.10;;;10.30;63.30;;;;;;6347069;22;20014;-68
2022/03/12 09:34:29;;;;;;;5.97;5.32;;;10.60;62.50;;;;;;6346768;22;20049;-67
2022/03/12 09:36:55;;;;;;;1.20;1.13;;;10.70;62.60;;;;;;6336697;22;20339;-69
2022/03/12 09:39:21;;;;;;;1.83;1.38;;;10.70;62.80;;;;;;6346816;22;20212;-68
2022/03/12 09:41:47;;;;;;;1.02;1.02;;;11.10;61.80;;;;;;6336647;22;20078;-68
2022/03/12 09:44:13;;;;;;;4.32;1.30;;;11.40;61.50;;;;;;6336892;22;20007;-67
2022/03/12 09:46:39;;;;;;;1.38;1.27;;;10.80;61.50;;;;;;6347026;22;20007;-69
2022/03/12 09:49:06;;;;;;;2.50;1.70;;;10.60;62.80;;;;;;6336932;22;20454;-70
2022/03/12 09:51:32;;;;;;;0.85;0.85;;;10.60;62.80;;;;;;6336300;22;20325;-69
2022/03/12 09:53:59;;;;;;;0.55;0.55;;;10.70;62.60;;;;;;6309073;22;20381;-69
2022/03/12 09:56:25;;;;;;;0.20;0.20;;;10.90;62.60;;;;;;6346403;22;20485;-68
2022/03/12 09:58:51;;;;;;;2.45;2.25;;;10.70;63.00;;;;;;6346911;22;20018;-69
2022/03/12 10:01:17;;;;;;;0.60;0.60;;;10.80;63.60;;;;;;6346682;22;20006;-68
2022/03/12 10:03:43;;;;;;;1.45;1.08;;;10.90;63.10;;;;;;6337024;22;20014;-68
2022/03/12 10:06:15;;;;;;;3.63;2.05;;;11.00;63.50;;;;;;6336625;22;20424;-69
2022/03/12 10:08:42;;;;;;;2.00;1.42;;;11.20;63.30;;;;;;6336739;22;20034;-69
2022/03/12 10:11:08;;;;;;;0.20;0.20;;;11.30;61.70;;;;;;6336024;22;20006;-68
2022/03/12 10:13:34;;;;;;;0.80;0.80;;;11.20;62.00;;;;;;6336798;22;20038;-68
2022/03/12 10:16:00;;;;;;;0.73;0.73;;;11.40;62.20;;;;;;6336803;22;20083;-68
2022/03/12 10:18:27;;;;;;;0.70;0.70;;;11.40;63.20;;;;;;6346693;22;20336;-68
2022/03/12 10:20:53;;;;;;;0.73;0.73;;;11.70;63.10;;;;;;6309027;22;20038;-68
2022/03/12 10:23:20;;;;;;;0.57;0.57;;;11.80;63.20;;;;;;6346746;22;20010;-68
2022/03/12 10:25:46;;;;;;;0.88;0.88;;;11.90;62.90;;;;;;6336421;22;20015;-69
2022/03/12 10:28:13;;;;;;;1.10;0.73;;;12.00;62.30;;;;;;6346810;22;20007;-69
2022/03/12 10:30:39;;;;;;;0.10;0.10;;;12.40;61.00;;;;;;6346961;22;20018;-68
2022/03/12 10:33:06;;;;;;;0.52;0.52;;;12.40;60.00;;;;;;6309237;22;20022;-68
2022/03/12 10:35:36;;;;;;;0.65;0.65;;;12.50;60.60;;;;;;6336485;22;20045;-68
2022/03/12 10:38:11;;;;;;;1.80;1.25;;;12.90;59.50;;;;;;6336734;22;20003;-68
2022/03/12 10:40:38;;;;;;;0.75;0.63;;;12.70;61.10;;;;;;6337571;22;20036;-68
2022/03/12 10:43:12;;;;;;;1.63;1.52;;;12.70;58.80;;;;;;6348889;22;20018;-68
2022/03/12 10:46:01;;;;;;;0.40;0.40;;;13.00;59.20;;;;;;6338408;22;20086;-69
2022/03/12 10:48:29;;;;;;;3.40;2.28;;;13.30;59.20;;;;;;6338497;22;20493;-69
2022/03/12 10:50:55;;;;;;;0.98;0.88;;;13.50;59.00;;;;;;6338183;22;20013;-68
2022/03/12 10:53:22;;;;;;;3.20;2.58;;;13.50;59.20;;;;;;6338235;22;20040;-69
2022/03/12 10:55:53;;;;;;;0.98;0.52;;;13.30;60.70;;;;;;6338183;22;20110;-67
2022/03/12 10:58:26;;;;;;;0.63;0.63;;;13.40;59.80;;;;;;6348545;22;20021;-68
2022/03/12 11:01:02;;;;;;;1.63;1.52;;;13.90;59.70;;;;;;6320997;22;20010;-68
2022/03/12 11:03:31;;;;;;;0.20;0.20;;;14.00;59.70;;;;;;6338131;22;20461;-68
2022/03/12 11:05:58;;;;;;;2.00;1.13;;;14.30;57.80;;;;;;6338227;22;20007;-68
2022/03/12 11:08:25;;;;;;;0.90;0.80;;;14.40;57.30;;;;;;6338067;22;20323;-68
2022/03/12 11:10:54;;;;;;;1.73;1.27;;;14.10;59.40;;;;;;6338225;22;20007;-68
2022/03/12 11:13:34;;;;;;;1.92;1.80;;;14.20;59.00;;;;;;6348087;22;20374;-68
2022/03/12 11:16:24;;;;;;;1.27;1.17;;;14.90;57.70;;;;;;6310263;22;20507;-69
2022/03/12 11:18:53;;;;;;;0.95;0.70;;;14.40;59.10;;;;;;6318800;22;20056;-68
2022/03/12 11:21:40;;;;;;;1.58;0.80;;;14.50;59.50;;;;;;6337885;22;20013;-68
2022/03/12 11:24:48;;;;;;;0.20;0.20;;;14.60;57.50;;;;;;6348239;22;20006;-68
2022/03/12 11:27:31;;;;;;;0.28;0.28;;;15.00;56.50;;;;;;6311343;22;20017;-69
2022/03/12 11:30:00;;;;;;;1.52;1.13;;;14.80;57.50;;;;;;6311501;22;20011;-67
2022/03/12 11:32:30;;;;;;;2.10;1.90;;;15.10;58.90;;;;;;6337517;22;20038;-69
2022/03/12 11:35:08;;;;;;;4.00;2.50;;;15.50;58.10;;;;;;6310110;22;20085;-70
2022/03/12 11:37:36;;;;;;;1.35;1.17;;;15.50;57.60;;;;;;6319804;22;20389;-63
2022/03/12 11:40:07;;;;;;;1.02;0.50;;;15.80;55.90;;;;;;6337635;22;20021;-67
2022/03/12 11:42:36;;;;;;;1.98;1.80;;;14.70;57.80;;;;;;6347860;22;20031;-68
2022/03/12 11:45:18;;;;;;;0.32;0.32;;;14.80;59.10;;;;;;6348170;22;20404;-68
2022/03/12 11:47:46;;;;;;;1.95;1.20;;;15.30;59.00;;;;;;6337919;22;20089;-62
2022/03/12 11:50:22;;;;;;;1.15;0.90;;;16.10;57.20;;;;;;6337827;22;20018;-67
2022/03/12 11:52:48;;;;;;;1.23;1.08;;;16.90;56.40;;;;;;6336021;22;20021;-64
2022/03/12 11:55:23;;;;;;;0.77;0.75;;;15.40;56.90;;;;;;6337498;22;20011;-65
2022/03/12 11:57:50;;;;;;;4.28;1.95;;;16.30;57.90;;;;;;6310973;22;20011;-68
2022/03/12 12:00:25;;;;;;;6.50;1.08;;;17.40;55.50;;;;;;6347606;22;20444;-73
2022/03/12 12:02:53;;;;;;;0.77;0.77;;;16.90;56.90;;;;;;6337797;22;20049;-73
2022/03/12 12:05:22;;;;;;;1.70;1.45;;;17.10;56.90;;;;;;6347791;22;20014;-71
2022/03/12 12:07:51;;;;;;;1.17;0.85;;;17.70;56.10;;;;;;6337496;22;20010;-68
2022/03/12 12:10:30;;;;;;;4.78;3.20;;;17.90;54.10;;;;;;6310631;22;20017;-65
2022/03/12 12:12:58;;;;;;;3.50;2.42;;;17.60;53.50;;;;;;6321358;22;20003;-65
2022/03/12 12:15:31;;;;;;;0.60;0.60;;;16.10;57.70;;;;;;6337600;22;20015;-66
2022/03/12 12:17:57;;;;;;;0.95;0.80;;;16.50;57.70;;;;;;6347607;22;20072;-70
2022/03/12 12:20:24;;;;;;;5.07;1.27;;;17.80;56.10;;;;;;6347478;22;20113;-70
2022/03/12 12:22:50;;;;;;;0.55;0.50;;;19.10;53.20;;;;;;6347564;22;20014;-68
2022/03/12 12:25:19;;;;;;;3.00;1.90;;;18.90;52.60;;;;;;6346970;22;20034;-69
2022/03/12 12:27:51;;;;;;;0.50;0.47;;;18.40;54.00;;;;;;6347537;22;20010;-71
2022/03/12 12:30:38;;;;;;;1.25;1.02;;;16.90;54.60;;;;;;6347568;22;20006;-67
2022/03/12 12:33:42;;;;;;;0.57;0.50;;;17.40;56.70;;;;;;6284957;22;20015;-68
2022/03/12 12:36:08;;;;;;;0.38;0.35;;;18.20;55.10;;;;;;6320143;22;20449;-66
2022/03/12 12:38:35;;;;;;;0.20;0.20;;;17.80;55.60;;;;;;6347131;22;20006;-67
2022/03/12 12:41:03;;;;;;;2.17;1.30;;;18.10;56.70;;;;;;6347433;22;20010;-66
2022/03/12 12:44:04;;;;;;;0.25;0.25;;;17.50;57.30;;;;;;6337223;22;20463;-68
2022/03/12 12:46:31;;;;;;;0.65;0.65;;;18.00;55.60;;;;;;6322723;22;20034;-67
2022/03/12 12:49:01;;;;;;;0.63;0.47;;;18.40;56.40;;;;;;6319983;22;20044;-67
2022/03/12 12:51:27;;;;;;;0.17;0.17;;;17.50;57.60;;;;;;6320826;22;20340;-67
2022/03/12 12:53:55;;;;;;;0.70;0.70;;;17.20;59.10;;;;;;6347456;22;20090;-66
2022/03/12 12:56:36;;;;;;;0.80;0.80;;;17.10;59.50;;;;;;6319884;22;20006;-67
2022/03/12 12:59:02;;;;;;;;;;;17.70;58.30;;;;;;6347805;22;20010;-67
2022/03/12 13:01:45;;;;;;;0.00;0.00;;;17.60;58.10;;;;;;6337136;22;19910;-67
2022/03/12 13:04:16;;;;;;;1.30;0.77;;;17.70;58.40;;;;;;6319780;22;20014;-68
2022/03/12 13:06:52;;;;;;;2.00;1.75;;;18.10;58.30;;;;;;6347407;22;20309;-68